sensor_id;sensor_type;location;lat;lon;timestamp;P1;durP1;ratioP1;P2;durP2;ratioP2
24421;SDS011;12600;53.326;-6.298;2023-07-13T00:02:47;7.72;;;2.67;;
24421;SDS011;12600;53.326;-6.298;2023-07-13T00:05:36;9.50;;;3.08;;
24421;SDS011;12600;53.326;-6.298;2023-07-13T00:08:26;10.38;;;3.20;;
24421;SDS011;12600;53.326;-6.298;2023-07-13T00:11:20;11.70;;;3.40;;
24421;SDS011;12600;53.326;-6.298;2023-07-13T00:14:09;9.48;;;3.05;;
24421;SDS011;12600;53.326;-6.298;2023-07-13T00:16:59;10.38;;;3.10;;
24421;SDS011;12600;53.326;-6.298;2023-07-13T00:19:50;9.07;;;3.00;;
24421;SDS011;12600;53.326;-6.298;2023-07-13T00:22:40;9.02;;;3.10;;
24421;SDS011;12600;53.326;-6.298;2023-07-13T00:25:29;9.35;;;3.25;;
24421;SDS011;12600;53.326;-6.298;2023-07-13T00:28:19;9.38;;;3.17;;
24421;SDS011;12600;53.326;-6.298;2023-07-13T00:31:09;10.82;;;3.25;;
24421;SDS011;12600;53.326;-6.298;2023-07-13T00:34:01;10.23;;;3.92;;
24421;SDS011;12600;53.326;-6.298;2023-07-13T00:36:53;11.13;;;3.15;;
24421;SDS011;12600;53.326;-6.298;2023-07-13T00:39:42;12.63;;;3.63;;
24421;SDS011;12600;53.326;-6.298;2023-07-13T00:42:32;11.40;;;3.67;;
24421;SDS011;12600;53.326;-6.298;2023-07-13T00:49:04;14.77;;;4.78;;
24421;SDS011;12600;53.326;-6.298;2023-07-13T00:51:59;14.48;;;4.60;;
24421;SDS011;12600;53.326;-6.298;2023-07-13T00:54:53;13.93;;;3.67;;
24421;SDS011;12600;53.326;-6.298;2023-07-13T00:57:44;8.98;;;3.17;;
24421;SDS011;12600;53.326;-6.298;2023-07-13T01:00:35;7.85;;;3.10;;
24421;SDS011;12600;53.326;-6.298;2023-07-13T01:03:26;10.70;;;3.97;;
24421;SDS011;12600;53.326;-6.298;2023-07-13T01:06:19;9.88;;;3.05;;
24421;SDS011;12600;53.326;-6.298;2023-07-13T01:09:10;9.40;;;3.30;;
24421;SDS011;12600;53.326;-6.298;2023-07-13T01:12:00;9.20;;;3.50;;
24421;SDS011;12600;53.326;-6.298;2023-07-13T01:14:56;8.95;;;3.42;;
24421;SDS011;12600;53.326;-6.298;2023-07-13T01:17:47;10.57;;;2.97;;
24421;SDS011;12600;53.326;-6.298;2023-07-13T01:20:37;12.60;;;3.60;;
24421;SDS011;12600;53.326;-6.298;2023-07-13T01:23:28;9.88;;;3.63;;
24421;SDS011;12600;53.326;-6.298;2023-07-13T01:26:19;15.38;;;3.67;;
24421;SDS011;12600;53.326;-6.298;2023-07-13T01:29:09;9.38;;;3.47;;
24421;SDS011;12600;53.326;-6.298;2023-07-13T01:31:58;12.18;;;4.60;;
24421;SDS011;12600;53.326;-6.298;2023-07-13T01:34:48;9.50;;;3.45;;
24421;SDS011;12600;53.326;-6.298;2023-07-13T01:37:38;12.02;;;3.40;;
24421;SDS011;12600;53.326;-6.298;2023-07-13T01:40:29;17.23;;;3.83;;
24421;SDS011;12600;53.326;-6.298;2023-07-13T01:43:19;11.32;;;3.47;;
24421;SDS011;12600;53.326;-6.298;2023-07-13T01:46:08;9.60;;;3.63;;
24421;SDS011;12600;53.326;-6.298;2023-07-13T01:49:13;15.50;;;3.70;;
24421;SDS011;12600;53.326;-6.298;2023-07-13T01:52:03;11.70;;;3.50;;
24421;SDS011;12600;53.326;-6.298;2023-07-13T01:54:53;11.70;;;3.50;;
24421;SDS011;12600;53.326;-6.298;2023-07-13T01:57:44;13.10;;;3.60;;
24421;SDS011;12600;53.326;-6.298;2023-07-13T02:00:33;10.50;;;4.07;;
24421;SDS011;12600;53.326;-6.298;2023-07-13T02:03:23;14.20;;;4.90;;
24421;SDS011;12600;53.326;-6.298;2023-07-13T02:06:14;14.70;;;4.72;;
24421;SDS011;12600;53.326;-6.298;2023-07-13T02:09:03;10.57;;;3.83;;
24421;SDS011;12600;53.326;-6.298;2023-07-13T02:11:52;13.77;;;3.78;;
24421;SDS011;12600;53.326;-6.298;2023-07-13T02:14:43;14.27;;;3.47;;
24421;SDS011;12600;53.326;-6.298;2023-07-13T02:17:33;9.02;;;3.33;;
24421;SDS011;12600;53.326;-6.298;2023-07-13T02:20:23;10.35;;;3.63;;
24421;SDS011;12600;53.326;-6.298;2023-07-13T02:23:13;10.15;;;3.88;;
24421;SDS011;12600;53.326;-6.298;2023-07-13T02:26:03;9.65;;;3.42;;
24421;SDS011;12600;53.326;-6.298;2023-07-13T02:28:52;10.15;;;3.55;;
24421;SDS011;12600;53.326;-6.298;2023-07-13T02:31:43;11.75;;;3.70;;
24421;SDS011;12600;53.326;-6.298;2023-07-13T02:34:32;13.20;;;4.65;;
24421;SDS011;12600;53.326;-6.298;2023-07-13T02:37:24;11.35;;;4.30;;
24421;SDS011;12600;53.326;-6.298;2023-07-13T02:40:13;15.93;;;4.07;;
24421;SDS011;12600;53.326;-6.298;2023-07-13T02:43:03;14.02;;;4.30;;
24421;SDS011;12600;53.326;-6.298;2023-07-13T02:45:52;14.70;;;5.10;;
24421;SDS011;12600;53.326;-6.298;2023-07-13T02:48:43;15.93;;;3.92;;
24421;SDS011;12600;53.326;-6.298;2023-07-13T02:51:33;12.60;;;3.65;;
24421;SDS011;12600;53.326;-6.298;2023-07-13T02:54:23;9.25;;;3.25;;
24421;SDS011;12600;53.326;-6.298;2023-07-13T02:57:13;12.02;;;3.40;;
24421;SDS011;12600;53.326;-6.298;2023-07-13T03:00:02;14.27;;;4.20;;
24421;SDS011;12600;53.326;-6.298;2023-07-13T03:02:53;9.10;;;3.50;;
24421;SDS011;12600;53.326;-6.298;2023-07-13T03:05:46;12.63;;;3.80;;
24421;SDS011;12600;53.326;-6.298;2023-07-13T03:08:42;11.02;;;3.30;;
24421;SDS011;12600;53.326;-6.298;2023-07-13T03:11:32;12.63;;;4.22;;
24421;SDS011;12600;53.326;-6.298;2023-07-13T03:14:35;12.95;;;3.78;;
24421;SDS011;12600;53.326;-6.298;2023-07-13T03:17:26;16.00;;;3.92;;
24421;SDS011;12600;53.326;-6.298;2023-07-13T03:20:16;10.50;;;3.85;;
24421;SDS011;12600;53.326;-6.298;2023-07-13T03:23:07;15.60;;;3.85;;
24421;SDS011;12600;53.326;-6.298;2023-07-13T03:26:03;10.52;;;4.25;;
24421;SDS011;12600;53.326;-6.298;2023-07-13T03:28:55;9.43;;;3.72;;
24421;SDS011;12600;53.326;-6.298;2023-07-13T03:31:45;10.20;;;3.30;;
24421;SDS011;12600;53.326;-6.298;2023-07-13T03:34:34;13.65;;;3.92;;
24421;SDS011;12600;53.326;-6.298;2023-07-13T03:37:25;13.90;;;3.58;;
24421;SDS011;12600;53.326;-6.298;2023-07-13T03:40:16;11.35;;;3.40;;
24421;SDS011;12600;53.326;-6.298;2023-07-13T03:43:06;15.20;;;4.47;;
24421;SDS011;12600;53.326;-6.298;2023-07-13T03:45:55;10.23;;;3.55;;
24421;SDS011;12600;53.326;-6.298;2023-07-13T03:48:45;9.73;;;3.70;;
24421;SDS011;12600;53.326;-6.298;2023-07-13T03:51:36;13.50;;;3.45;;
24421;SDS011;12600;53.326;-6.298;2023-07-13T03:54:26;11.27;;;4.15;;
24421;SDS011;12600;53.326;-6.298;2023-07-13T03:57:18;13.75;;;4.07;;
24421;SDS011;12600;53.326;-6.298;2023-07-13T04:00:07;15.75;;;4.28;;
24421;SDS011;12600;53.326;-6.298;2023-07-13T04:03:04;11.55;;;4.05;;
24421;SDS011;12600;53.326;-6.298;2023-07-13T04:05:54;10.90;;;3.90;;
24421;SDS011;12600;53.326;-6.298;2023-07-13T04:08:47;12.13;;;3.53;;
24421;SDS011;12600;53.326;-6.298;2023-07-13T04:11:38;10.57;;;4.10;;
24421;SDS011;12600;53.326;-6.298;2023-07-13T04:14:29;10.05;;;3.35;;
24421;SDS011;12600;53.326;-6.298;2023-07-13T04:17:18;15.57;;;3.75;;
24421;SDS011;12600;53.326;-6.298;2023-07-13T04:20:08;22.65;;;4.93;;
24421;SDS011;12600;53.326;-6.298;2023-07-13T04:22:58;12.20;;;3.67;;
24421;SDS011;12600;53.326;-6.298;2023-07-13T04:25:48;10.57;;;3.38;;
24421;SDS011;12600;53.326;-6.298;2023-07-13T04:28:41;9.15;;;3.28;;
24421;SDS011;12600;53.326;-6.298;2023-07-13T04:31:32;10.20;;;3.55;;
24421;SDS011;12600;53.326;-6.298;2023-07-13T04:34:21;13.63;;;3.65;;
24421;SDS011;12600;53.326;-6.298;2023-07-13T04:37:11;10.70;;;3.80;;
24421;SDS011;12600;53.326;-6.298;2023-07-13T04:40:00;11.52;;;3.90;;
24421;SDS011;12600;53.326;-6.298;2023-07-13T04:42:50;9.90;;;3.80;;
24421;SDS011;12600;53.326;-6.298;2023-07-13T04:45:40;11.95;;;3.88;;
24421;SDS011;12600;53.326;-6.298;2023-07-13T04:48:31;12.38;;;4.07;;
24421;SDS011;12600;53.326;-6.298;2023-07-13T04:51:21;13.73;;;4.60;;
24421;SDS011;12600;53.326;-6.298;2023-07-13T04:54:11;12.57;;;4.45;;
24421;SDS011;12600;53.326;-6.298;2023-07-13T04:57:00;19.90;;;4.45;;
24421;SDS011;12600;53.326;-6.298;2023-07-13T04:59:50;12.23;;;4.10;;
24421;SDS011;12600;53.326;-6.298;2023-07-13T05:02:39;12.73;;;4.30;;
24421;SDS011;12600;53.326;-6.298;2023-07-13T05:05:30;15.88;;;4.60;;
24421;SDS011;12600;53.326;-6.298;2023-07-13T05:08:20;13.60;;;4.60;;
24421;SDS011;12600;53.326;-6.298;2023-07-13T05:11:09;11.98;;;4.40;;
24421;SDS011;12600;53.326;-6.298;2023-07-13T05:13:59;12.43;;;4.72;;
24421;SDS011;12600;53.326;-6.298;2023-07-13T05:16:49;17.10;;;4.60;;
24421;SDS011;12600;53.326;-6.298;2023-07-13T05:19:38;13.18;;;4.57;;
24421;SDS011;12600;53.326;-6.298;2023-07-13T05:22:34;13.68;;;5.50;;
24421;SDS011;12600;53.326;-6.298;2023-07-13T05:25:25;16.63;;;6.07;;
24421;SDS011;12600;53.326;-6.298;2023-07-13T05:28:18;18.17;;;5.68;;
24421;SDS011;12600;53.326;-6.298;2023-07-13T05:31:08;13.97;;;4.03;;
24421;SDS011;12600;53.326;-6.298;2023-07-13T05:34:01;16.48;;;4.65;;
24421;SDS011;12600;53.326;-6.298;2023-07-13T05:36:53;12.85;;;4.15;;
24421;SDS011;12600;53.326;-6.298;2023-07-13T05:39:46;9.30;;;3.58;;
24421;SDS011;12600;53.326;-6.298;2023-07-13T05:42:38;11.45;;;3.90;;
24421;SDS011;12600;53.326;-6.298;2023-07-13T05:45:27;11.18;;;4.03;;
24421;SDS011;12600;53.326;-6.298;2023-07-13T05:48:17;9.55;;;3.75;;
24421;SDS011;12600;53.326;-6.298;2023-07-13T05:51:08;12.63;;;3.55;;
24421;SDS011;12600;53.326;-6.298;2023-07-13T05:53:58;16.05;;;4.55;;
24421;SDS011;12600;53.326;-6.298;2023-07-13T05:56:49;11.52;;;3.90;;
24421;SDS011;12600;53.326;-6.298;2023-07-13T05:59:38;11.98;;;4.43;;
24421;SDS011;12600;53.326;-6.298;2023-07-13T06:02:28;13.95;;;4.20;;
24421;SDS011;12600;53.326;-6.298;2023-07-13T06:05:17;17.75;;;4.10;;
24421;SDS011;12600;53.326;-6.298;2023-07-13T06:08:07;19.05;;;4.47;;
24421;SDS011;12600;53.326;-6.298;2023-07-13T06:11:01;16.75;;;4.32;;
24421;SDS011;12600;53.326;-6.298;2023-07-13T06:13:54;11.63;;;4.35;;
24421;SDS011;12600;53.326;-6.298;2023-07-13T06:16:44;21.35;;;4.47;;
24421;SDS011;12600;53.326;-6.298;2023-07-13T06:19:34;14.40;;;3.97;;
24421;SDS011;12600;53.326;-6.298;2023-07-13T06:22:23;20.35;;;4.80;;
24421;SDS011;12600;53.326;-6.298;2023-07-13T06:25:12;14.65;;;4.00;;
24421;SDS011;12600;53.326;-6.298;2023-07-13T06:28:02;12.90;;;3.60;;
24421;SDS011;12600;53.326;-6.298;2023-07-13T06:30:53;8.68;;;3.70;;
24421;SDS011;12600;53.326;-6.298;2023-07-13T06:33:42;12.02;;;3.58;;
24421;SDS011;12600;53.326;-6.298;2023-07-13T06:36:32;12.00;;;3.80;;
24421;SDS011;12600;53.326;-6.298;2023-07-13T06:39:23;13.48;;;3.70;;
24421;SDS011;12600;53.326;-6.298;2023-07-13T06:42:13;12.60;;;3.78;;
24421;SDS011;12600;53.326;-6.298;2023-07-13T06:45:05;15.85;;;4.28;;
24421;SDS011;12600;53.326;-6.298;2023-07-13T06:47:56;13.27;;;4.20;;
24421;SDS011;12600;53.326;-6.298;2023-07-13T06:50:48;10.95;;;3.80;;
24421;SDS011;12600;53.326;-6.298;2023-07-13T06:53:40;9.90;;;3.17;;
24421;SDS011;12600;53.326;-6.298;2023-07-13T06:56:30;11.43;;;3.67;;
24421;SDS011;12600;53.326;-6.298;2023-07-13T06:59:20;9.15;;;3.28;;
24421;SDS011;12600;53.326;-6.298;2023-07-13T07:02:10;13.88;;;3.70;;
24421;SDS011;12600;53.326;-6.298;2023-07-13T07:05:01;11.57;;;3.58;;
24421;SDS011;12600;53.326;-6.298;2023-07-13T07:07:51;13.75;;;3.65;;
24421;SDS011;12600;53.326;-6.298;2023-07-13T07:10:42;14.18;;;4.28;;
24421;SDS011;12600;53.326;-6.298;2023-07-13T07:13:32;11.00;;;4.03;;
24421;SDS011;12600;53.326;-6.298;2023-07-13T07:16:22;11.95;;;3.83;;
24421;SDS011;12600;53.326;-6.298;2023-07-13T07:19:13;9.63;;;3.30;;
24421;SDS011;12600;53.326;-6.298;2023-07-13T07:22:05;9.48;;;3.28;;
24421;SDS011;12600;53.326;-6.298;2023-07-13T07:24:54;11.43;;;3.30;;
24421;SDS011;12600;53.326;-6.298;2023-07-13T07:27:44;11.15;;;3.20;;
24421;SDS011;12600;53.326;-6.298;2023-07-13T07:30:36;8.43;;;3.50;;
24421;SDS011;12600;53.326;-6.298;2023-07-13T07:33:32;10.25;;;3.40;;
24421;SDS011;12600;53.326;-6.298;2023-07-13T07:36:22;11.93;;;3.65;;
24421;SDS011;12600;53.326;-6.298;2023-07-13T07:39:16;12.43;;;4.07;;
24421;SDS011;12600;53.326;-6.298;2023-07-13T07:42:05;11.65;;;3.42;;
24421;SDS011;12600;53.326;-6.298;2023-07-13T07:44:55;11.73;;;3.42;;
24421;SDS011;12600;53.326;-6.298;2023-07-13T07:47:45;9.18;;;3.15;;
24421;SDS011;12600;53.326;-6.298;2023-07-13T07:50:34;8.43;;;3.38;;
24421;SDS011;12600;53.326;-6.298;2023-07-13T07:53:26;6.53;;;3.10;;
24421;SDS011;12600;53.326;-6.298;2023-07-13T07:56:18;8.27;;;3.22;;
24421;SDS011;12600;53.326;-6.298;2023-07-13T07:59:10;7.68;;;3.30;;
24421;SDS011;12600;53.326;-6.298;2023-07-13T08:02:03;10.18;;;3.28;;
24421;SDS011;12600;53.326;-6.298;2023-07-13T08:05:13;7.90;;;4.00;;
24421;SDS011;12600;53.326;-6.298;2023-07-13T08:08:06;7.53;;;3.33;;
24421;SDS011;12600;53.326;-6.298;2023-07-13T08:10:55;10.38;;;3.83;;
24421;SDS011;12600;53.326;-6.298;2023-07-13T08:14:06;7.97;;;3.80;;
24421;SDS011;12600;53.326;-6.298;2023-07-13T08:16:56;9.95;;;3.85;;
24421;SDS011;12600;53.326;-6.298;2023-07-13T08:19:45;8.90;;;3.90;;
24421;SDS011;12600;53.326;-6.298;2023-07-13T08:22:35;14.90;;;4.32;;
24421;SDS011;12600;53.326;-6.298;2023-07-13T08:25:24;5.60;;;3.58;;
24421;SDS011;12600;53.326;-6.298;2023-07-13T08:28:14;6.13;;;3.10;;
24421;SDS011;12600;53.326;-6.298;2023-07-13T08:31:05;7.13;;;3.25;;
24421;SDS011;12600;53.326;-6.298;2023-07-13T08:33:55;5.55;;;3.25;;
24421;SDS011;12600;53.326;-6.298;2023-07-13T08:36:45;6.43;;;3.05;;
24421;SDS011;12600;53.326;-6.298;2023-07-13T08:39:34;6.13;;;3.22;;
24421;SDS011;12600;53.326;-6.298;2023-07-13T08:42:27;8.48;;;3.30;;
24421;SDS011;12600;53.326;-6.298;2023-07-13T08:45:27;6.25;;;3.30;;
24421;SDS011;12600;53.326;-6.298;2023-07-13T08:48:28;6.78;;;3.00;;
24421;SDS011;12600;53.326;-6.298;2023-07-13T08:54:34;10.02;;;3.20;;
24421;SDS011;12600;53.326;-6.298;2023-07-13T08:57:27;7.97;;;2.80;;
24421;SDS011;12600;53.326;-6.298;2023-07-13T09:00:23;4.43;;;2.60;;
24421;SDS011;12600;53.326;-6.298;2023-07-13T09:03:29;7.25;;;3.22;;
24421;SDS011;12600;53.326;-6.298;2023-07-13T09:06:29;4.35;;;2.50;;
24421;SDS011;12600;53.326;-6.298;2023-07-13T09:09:29;5.97;;;2.63;;
24421;SDS011;12600;53.326;-6.298;2023-07-13T09:12:35;5.70;;;2.90;;
24421;SDS011;12600;53.326;-6.298;2023-07-13T09:15:35;4.63;;;2.63;;
24421;SDS011;12600;53.326;-6.298;2023-07-13T09:18:31;6.95;;;2.60;;
24421;SDS011;12600;53.326;-6.298;2023-07-13T09:21:25;3.88;;;2.42;;
24421;SDS011;12600;53.326;-6.298;2023-07-13T09:27:29;6.15;;;2.75;;
24421;SDS011;12600;53.326;-6.298;2023-07-13T09:30:25;7.60;;;2.90;;
24421;SDS011;12600;53.326;-6.298;2023-07-13T09:33:22;5.82;;;2.45;;
24421;SDS011;12600;53.326;-6.298;2023-07-13T09:36:18;6.30;;;2.92;;
24421;SDS011;12600;53.326;-6.298;2023-07-13T09:39:13;4.32;;;2.80;;
24421;SDS011;12600;53.326;-6.298;2023-07-13T09:42:14;7.70;;;2.72;;
24421;SDS011;12600;53.326;-6.298;2023-07-13T09:45:05;5.50;;;2.50;;
24421;SDS011;12600;53.326;-6.298;2023-07-13T09:47:59;5.18;;;2.40;;
24421;SDS011;12600;53.326;-6.298;2023-07-13T09:50:55;6.10;;;2.30;;
24421;SDS011;12600;53.326;-6.298;2023-07-13T09:53:46;6.82;;;2.40;;
24421;SDS011;12600;53.326;-6.298;2023-07-13T09:56:36;4.53;;;2.47;;
24421;SDS011;12600;53.326;-6.298;2023-07-13T09:59:27;5.43;;;2.60;;
24421;SDS011;12600;53.326;-6.298;2023-07-13T10:02:23;3.63;;;2.30;;
24421;SDS011;12600;53.326;-6.298;2023-07-13T10:05:15;7.57;;;2.45;;
24421;SDS011;12600;53.326;-6.298;2023-07-13T10:08:15;5.90;;;2.35;;
24421;SDS011;12600;53.326;-6.298;2023-07-13T10:11:18;4.80;;;2.67;;
24421;SDS011;12600;53.326;-6.298;2023-07-13T10:14:11;4.78;;;2.53;;
24421;SDS011;12600;53.326;-6.298;2023-07-13T10:17:04;6.53;;;2.67;;
24421;SDS011;12600;53.326;-6.298;2023-07-13T10:20:01;4.55;;;2.72;;
24421;SDS011;12600;53.326;-6.298;2023-07-13T10:23:00;5.30;;;2.25;;
24421;SDS011;12600;53.326;-6.298;2023-07-13T10:25:53;4.45;;;2.40;;
24421;SDS011;12600;53.326;-6.298;2023-07-13T10:28:47;4.22;;;2.40;;
24421;SDS011;12600;53.326;-6.298;2023-07-13T10:31:44;3.85;;;2.30;;
24421;SDS011;12600;53.326;-6.298;2023-07-13T10:34:34;4.55;;;2.53;;
24421;SDS011;12600;53.326;-6.298;2023-07-13T10:37:24;5.68;;;2.38;;
24421;SDS011;12600;53.326;-6.298;2023-07-13T10:40:22;5.70;;;2.45;;
24421;SDS011;12600;53.326;-6.298;2023-07-13T10:43:18;3.90;;;2.42;;
24421;SDS011;12600;53.326;-6.298;2023-07-13T10:46:19;5.45;;;2.58;;
24421;SDS011;12600;53.326;-6.298;2023-07-13T10:49:14;4.35;;;2.33;;
24421;SDS011;12600;53.326;-6.298;2023-07-13T10:52:06;3.80;;;2.20;;
24421;SDS011;12600;53.326;-6.298;2023-07-13T10:55:31;7.35;;;2.55;;
24421;SDS011;12600;53.326;-6.298;2023-07-13T10:58:29;4.43;;;2.30;;
24421;SDS011;12600;53.326;-6.298;2023-07-13T11:01:23;6.13;;;2.40;;
24421;SDS011;12600;53.326;-6.298;2023-07-13T11:04:12;4.95;;;2.25;;
24421;SDS011;12600;53.326;-6.298;2023-07-13T11:07:10;6.75;;;2.53;;
24421;SDS011;12600;53.326;-6.298;2023-07-13T11:10:36;5.97;;;2.70;;
24421;SDS011;12600;53.326;-6.298;2023-07-13T11:13:56;7.30;;;2.58;;
24421;SDS011;12600;53.326;-6.298;2023-07-13T11:16:51;4.57;;;2.08;;
24421;SDS011;12600;53.326;-6.298;2023-07-13T11:19:42;5.50;;;2.13;;
24421;SDS011;12600;53.326;-6.298;2023-07-13T11:22:41;4.28;;;2.28;;
24421;SDS011;12600;53.326;-6.298;2023-07-13T11:25:34;4.35;;;2.28;;
24421;SDS011;12600;53.326;-6.298;2023-07-13T11:28:25;3.78;;;2.08;;
24421;SDS011;12600;53.326;-6.298;2023-07-13T11:31:18;4.50;;;2.35;;
24421;SDS011;12600;53.326;-6.298;2023-07-13T11:34:12;4.82;;;2.63;;
24421;SDS011;12600;53.326;-6.298;2023-07-13T11:37:03;3.85;;;2.33;;
24421;SDS011;12600;53.326;-6.298;2023-07-13T11:40:03;4.47;;;2.38;;
24421;SDS011;12600;53.326;-6.298;2023-07-13T11:42:58;4.95;;;2.55;;
24421;SDS011;12600;53.326;-6.298;2023-07-13T11:45:49;5.80;;;2.70;;
24421;SDS011;12600;53.326;-6.298;2023-07-13T11:48:40;6.05;;;2.90;;
24421;SDS011;12600;53.326;-6.298;2023-07-13T11:51:33;5.93;;;2.47;;
24421;SDS011;12600;53.326;-6.298;2023-07-13T11:54:26;4.47;;;2.53;;
24421;SDS011;12600;53.326;-6.298;2023-07-13T11:57:23;4.70;;;2.60;;
24421;SDS011;12600;53.326;-6.298;2023-07-13T12:00:15;6.13;;;2.70;;
24421;SDS011;12600;53.326;-6.298;2023-07-13T12:03:10;6.63;;;2.80;;
24421;SDS011;12600;53.326;-6.298;2023-07-13T12:06:01;5.60;;;2.47;;
24421;SDS011;12600;53.326;-6.298;2023-07-13T12:09:14;8.50;;;2.90;;
24421;SDS011;12600;53.326;-6.298;2023-07-13T12:12:08;7.88;;;2.95;;
24421;SDS011;12600;53.326;-6.298;2023-07-13T12:15:00;7.72;;;3.17;;
24421;SDS011;12600;53.326;-6.298;2023-07-13T12:17:55;6.97;;;3.08;;
24421;SDS011;12600;53.326;-6.298;2023-07-13T12:20:45;5.00;;;2.30;;
24421;SDS011;12600;53.326;-6.298;2023-07-13T12:23:40;6.18;;;2.55;;
24421;SDS011;12600;53.326;-6.298;2023-07-13T12:26:35;6.00;;;2.80;;
24421;SDS011;12600;53.326;-6.298;2023-07-13T12:29:24;6.50;;;2.70;;
24421;SDS011;12600;53.326;-6.298;2023-07-13T12:32:14;5.40;;;3.20;;
24421;SDS011;12600;53.326;-6.298;2023-07-13T12:35:13;7.15;;;2.72;;
24421;SDS011;12600;53.326;-6.298;2023-07-13T12:38:09;7.60;;;3.05;;
24421;SDS011;12600;53.326;-6.298;2023-07-13T12:41:00;6.07;;;2.67;;
24421;SDS011;12600;53.326;-6.298;2023-07-13T12:43:52;6.55;;;2.80;;
24421;SDS011;12600;53.326;-6.298;2023-07-13T12:46:53;5.32;;;2.55;;
24421;SDS011;12600;53.326;-6.298;2023-07-13T12:49:47;4.82;;;2.83;;
24421;SDS011;12600;53.326;-6.298;2023-07-13T12:52:38;7.35;;;2.85;;
24421;SDS011;12600;53.326;-6.298;2023-07-13T12:55:39;5.50;;;2.70;;
24421;SDS011;12600;53.326;-6.298;2023-07-13T12:58:35;6.50;;;2.70;;
24421;SDS011;12600;53.326;-6.298;2023-07-13T13:01:31;5.75;;;2.85;;
24421;SDS011;12600;53.326;-6.298;2023-07-13T13:04:24;6.72;;;2.78;;
24421;SDS011;12600;53.326;-6.298;2023-07-13T13:07:14;5.68;;;2.67;;
24421;SDS011;12600;53.326;-6.298;2023-07-13T13:10:10;6.00;;;3.03;;
24421;SDS011;12600;53.326;-6.298;2023-07-13T13:13:01;5.47;;;3.13;;
24421;SDS011;12600;53.326;-6.298;2023-07-13T13:15:50;5.32;;;2.80;;
24421;SDS011;12600;53.326;-6.298;2023-07-13T13:18:42;4.10;;;2.70;;
24421;SDS011;12600;53.326;-6.298;2023-07-13T13:21:31;5.32;;;3.20;;
24421;SDS011;12600;53.326;-6.298;2023-07-13T13:24:23;6.68;;;2.92;;
24421;SDS011;12600;53.326;-6.298;2023-07-13T13:27:15;6.50;;;2.50;;
24421;SDS011;12600;53.326;-6.298;2023-07-13T13:33:00;8.37;;;2.97;;
24421;SDS011;12600;53.326;-6.298;2023-07-13T13:35:51;4.45;;;2.70;;
24421;SDS011;12600;53.326;-6.298;2023-07-13T13:38:40;5.22;;;2.63;;
24421;SDS011;12600;53.326;-6.298;2023-07-13T13:41:30;5.70;;;2.65;;
24421;SDS011;12600;53.326;-6.298;2023-07-13T13:44:20;6.70;;;2.92;;
24421;SDS011;12600;53.326;-6.298;2023-07-13T13:47:17;9.23;;;2.83;;
24421;SDS011;12600;53.326;-6.298;2023-07-13T13:50:18;4.97;;;2.50;;
24421;SDS011;12600;53.326;-6.298;2023-07-13T13:53:12;4.47;;;2.50;;
24421;SDS011;12600;53.326;-6.298;2023-07-13T13:58:53;4.88;;;2.78;;
24421;SDS011;12600;53.326;-6.298;2023-07-13T14:01:43;4.85;;;2.40;;
24421;SDS011;12600;53.326;-6.298;2023-07-13T14:04:36;4.18;;;2.40;;
24421;SDS011;12600;53.326;-6.298;2023-07-13T14:07:26;6.65;;;2.70;;
24421;SDS011;12600;53.326;-6.298;2023-07-13T14:10:18;8.77;;;2.50;;
24421;SDS011;12600;53.326;-6.298;2023-07-13T14:13:15;4.15;;;2.70;;
24421;SDS011;12600;53.326;-6.298;2023-07-13T14:16:09;6.05;;;2.60;;
24421;SDS011;12600;53.326;-6.298;2023-07-13T14:19:01;5.07;;;2.88;;
24421;SDS011;12600;53.326;-6.298;2023-07-13T14:21:52;6.03;;;2.70;;
24421;SDS011;12600;53.326;-6.298;2023-07-13T14:24:42;8.18;;;2.60;;
24421;SDS011;12600;53.326;-6.298;2023-07-13T14:27:32;8.95;;;2.72;;
24421;SDS011;12600;53.326;-6.298;2023-07-13T14:30:22;4.30;;;2.42;;
24421;SDS011;12600;53.326;-6.298;2023-07-13T14:33:11;4.15;;;2.30;;
24421;SDS011;12600;53.326;-6.298;2023-07-13T14:36:01;4.47;;;2.28;;
24421;SDS011;12600;53.326;-6.298;2023-07-13T14:38:51;4.25;;;2.25;;
24421;SDS011;12600;53.326;-6.298;2023-07-13T14:41:41;5.80;;;2.85;;
24421;SDS011;12600;53.326;-6.298;2023-07-13T14:44:32;4.32;;;2.20;;
24421;SDS011;12600;53.326;-6.298;2023-07-13T14:47:23;3.35;;;1.88;;
24421;SDS011;12600;53.326;-6.298;2023-07-13T14:50:13;3.40;;;2.08;;
24421;SDS011;12600;53.326;-6.298;2023-07-13T14:53:04;5.17;;;2.17;;
24421;SDS011;12600;53.326;-6.298;2023-07-13T14:55:57;7.93;;;2.40;;
24421;SDS011;12600;53.326;-6.298;2023-07-13T14:58:47;5.82;;;2.33;;
24421;SDS011;12600;53.326;-6.298;2023-07-13T15:01:38;4.82;;;2.20;;
24421;SDS011;12600;53.326;-6.298;2023-07-13T15:04:29;5.63;;;2.10;;
24421;SDS011;12600;53.326;-6.298;2023-07-13T15:07:21;4.13;;;2.15;;
24421;SDS011;12600;53.326;-6.298;2023-07-13T15:10:14;5.95;;;2.20;;
24421;SDS011;12600;53.326;-6.298;2023-07-13T15:13:13;3.70;;;2.00;;
24421;SDS011;12600;53.326;-6.298;2023-07-13T15:16:05;5.68;;;2.08;;
24421;SDS011;12600;53.326;-6.298;2023-07-13T15:19:13;3.58;;;1.90;;
24421;SDS011;12600;53.326;-6.298;2023-07-13T15:22:03;4.15;;;1.95;;
24421;SDS011;12600;53.326;-6.298;2023-07-13T15:24:57;3.38;;;1.92;;
24421;SDS011;12600;53.326;-6.298;2023-07-13T15:27:53;3.78;;;2.10;;
24421;SDS011;12600;53.326;-6.298;2023-07-13T15:30:50;3.53;;;2.22;;
24421;SDS011;12600;53.326;-6.298;2023-07-13T15:33:42;5.05;;;2.30;;
24421;SDS011;12600;53.326;-6.298;2023-07-13T15:36:38;3.03;;;2.08;;
24421;SDS011;12600;53.326;-6.298;2023-07-13T15:39:30;3.67;;;2.05;;
24421;SDS011;12600;53.326;-6.298;2023-07-13T15:42:20;3.75;;;2.10;;
24421;SDS011;12600;53.326;-6.298;2023-07-13T15:45:16;4.05;;;2.13;;
24421;SDS011;12600;53.326;-6.298;2023-07-13T15:48:15;4.78;;;2.30;;
24421;SDS011;12600;53.326;-6.298;2023-07-13T15:51:11;5.22;;;2.10;;
24421;SDS011;12600;53.326;-6.298;2023-07-13T15:54:10;3.35;;;2.33;;
24421;SDS011;12600;53.326;-6.298;2023-07-13T15:57:03;5.28;;;2.40;;
24421;SDS011;12600;53.326;-6.298;2023-07-13T16:00:01;4.45;;;2.00;;
24421;SDS011;12600;53.326;-6.298;2023-07-13T16:02:59;3.40;;;1.90;;
24421;SDS011;12600;53.326;-6.298;2023-07-13T16:05:48;6.45;;;2.40;;
24421;SDS011;12600;53.326;-6.298;2023-07-13T16:08:40;4.22;;;2.35;;
24421;SDS011;12600;53.326;-6.298;2023-07-13T16:11:37;3.47;;;2.30;;
24421;SDS011;12600;53.326;-6.298;2023-07-13T16:14:30;3.72;;;2.20;;
24421;SDS011;12600;53.326;-6.298;2023-07-13T16:17:20;4.20;;;2.20;;
24421;SDS011;12600;53.326;-6.298;2023-07-13T16:20:09;5.05;;;2.63;;
24421;SDS011;12600;53.326;-6.298;2023-07-13T16:23:00;6.55;;;3.70;;
24421;SDS011;12600;53.326;-6.298;2023-07-13T16:25:51;6.00;;;3.50;;
24421;SDS011;12600;53.326;-6.298;2023-07-13T16:28:42;4.70;;;2.72;;
24421;SDS011;12600;53.326;-6.298;2023-07-13T16:31:32;3.88;;;2.45;;
24421;SDS011;12600;53.326;-6.298;2023-07-13T16:34:24;3.03;;;2.28;;
24421;SDS011;12600;53.326;-6.298;2023-07-13T16:37:15;3.92;;;2.22;;
24421;SDS011;12600;53.326;-6.298;2023-07-13T16:40:18;4.07;;;2.25;;
24421;SDS011;12600;53.326;-6.298;2023-07-13T16:43:11;4.73;;;2.70;;
24421;SDS011;12600;53.326;-6.298;2023-07-13T16:46:12;3.35;;;2.00;;
24421;SDS011;12600;53.326;-6.298;2023-07-13T16:49:22;3.92;;;2.05;;
24421;SDS011;12600;53.326;-6.298;2023-07-13T16:52:18;2.97;;;1.98;;
24421;SDS011;12600;53.326;-6.298;2023-07-13T16:55:09;3.40;;;1.88;;
24421;SDS011;12600;53.326;-6.298;2023-07-13T16:58:02;3.80;;;2.03;;
24421;SDS011;12600;53.326;-6.298;2023-07-13T17:01:00;3.50;;;1.40;;
24421;SDS011;12600;53.326;-6.298;2023-07-13T17:03:52;3.97;;;1.77;;
24421;SDS011;12600;53.326;-6.298;2023-07-13T17:06:49;3.90;;;1.90;;
24421;SDS011;12600;53.326;-6.298;2023-07-13T17:09:42;2.75;;;1.65;;
24421;SDS011;12600;53.326;-6.298;2023-07-13T17:12:33;2.72;;;1.75;;
24421;SDS011;12600;53.326;-6.298;2023-07-13T17:15:24;2.60;;;1.73;;